Time;durP1;ratioP1;P1;durP2;ratioP2;P2;SDS_P1;SDS_P2;PMS_P1;PMS_P2;Temp;Humidity;BMP_temperature;BMP_pressure;BME280_temperature;BME280_humidity;BME280_pressure;Samples;Min_cycle;Max_cycle;Signal;HPM_P1;HPM_P2
2022/11/12 00:00:04;;;;;;;9.25;4.90;;;;;;;17.04;62.16;103174.88;4745243;30;20128;-81
2022/11/12 00:05:56;;;;;;;8.95;5.13;;;;;;;17.03;61.84;103165.31;4751507;30;20047;-81
2022/11/12 00:08:22;;;;;;;6.95;4.38;;;;;;;17.03;62.00;103170.50;4762451;30;20032;-81
2022/11/12 00:10:50;;;;;;;8.82;4.93;;;;;;;17.03;61.81;103168.78;4771329;30;20043;-81
2022/11/12 00:13:17;;;;;;;7.00;4.65;;;;;;;17.03;61.66;103167.91;4755051;30;20047;-81
2022/11/12 00:15:52;;;;;;;7.38;4.93;;;;;;;17.02;61.81;103163.53;4759913;30;20124;-81
2022/11/12 00:18:25;;;;;;;6.47;4.60;;;;;;;17.02;61.91;103173.94;4749588;30;20057;-80
2022/11/12 00:20:52;;;;;;;8.60;4.80;;;;;;;17.03;61.96;103167.91;4760136;30;20085;-81
2022/11/12 00:23:25;;;;;;;7.07;4.15;;;;;;;17.02;61.81;103174.81;4749216;30;20573;-80
2022/11/12 00:25:58;;;;;;;6.47;4.40;;;;;;;17.02;61.83;103166.13;4743387;30;20051;-80
2022/11/12 00:28:25;;;;;;;5.75;4.45;;;;;;;17.02;61.68;103161.81;4739594;30;20036;-80
2022/11/12 00:30:51;;;;;;;6.72;4.55;;;;;;;17.01;61.79;103157.44;4770928;30;20051;-81
2022/11/12 00:33:25;;;;;;;6.70;4.20;;;;;;;17.01;61.67;103159.19;4772832;30;20036;-81
2022/11/12 00:35:51;;;;;;;;;;;;;;;17.02;61.51;103163.53;4757065;30;20052;-81
2022/11/12 00:38:37;;;;;;;6.13;4.38;;;;;;;17.01;61.62;103166.97;4776522;30;19918;-81
2022/11/12 00:41:02;;;;;;;5.90;3.90;;;;;;;17.00;61.72;103168.69;4763753;30;20040;-80
2022/11/12 00:43:28;;;;;;;6.13;3.72;;;;;;;17.01;61.44;103173.06;4763845;30;20048;-81
2022/11/12 00:45:53;;;;;;;7.75;3.92;;;;;;;17.01;61.52;103169.59;4731114;30;20049;-81
2022/11/12 00:48:19;;;;;;;5.80;4.20;;;;;;;16.99;61.78;103169.53;4716315;30;20471;-80
2022/11/12 00:50:46;;;;;;;5.70;3.95;;;;;;;17.00;61.44;103162.59;4716633;30;20045;-81
2022/11/12 00:53:12;;;;;;;5.07;3.85;;;;;;;16.99;61.49;103158.25;4722441;30;20043;-81
2022/11/12 00:55:38;;;;;;;5.95;3.97;;;;;;;16.99;61.27;103159.13;4766154;30;20060;-81
2022/11/12 00:58:04;;;;;;;5.15;3.85;;;;;;;17.00;61.37;103175.59;4753160;30;20067;-81
2022/11/12 01:00:48;;;;;;;6.35;3.90;;;;;;;17.00;61.28;103162.59;4751629;30;20160;-81
2022/11/12 01:03:20;;;;;;;5.65;3.70;;;;;;;17.00;61.56;103155.66;4749930;30;20040;-81
2022/11/12 01:05:45;;;;;;;6.10;3.95;;;;;;;16.99;61.49;103156.53;4746516;30;20091;-81
2022/11/12 01:08:11;;;;;;;6.15;3.90;;;;;;;17.00;61.24;103160.00;4731258;30;20127;-81
2022/11/12 01:10:36;;;;;;;5.40;3.95;;;;;;;16.99;61.56;103159.13;4731465;30;20508;-80
2022/11/12 01:13:02;;;;;;;5.90;3.63;;;;;;;16.99;61.60;103153.91;4780787;30;20055;-81
2022/11/12 01:15:28;;;;;;;5.30;3.70;;;;;;;16.99;61.65;103164.31;4765125;30;20044;-80
2022/11/12 01:17:54;;;;;;;5.90;3.53;;;;;;;17.00;61.41;103170.41;4763256;30;20047;-80
2022/11/12 01:20:21;;;;;;;4.70;3.42;;;;;;;16.99;61.49;103164.31;4763507;30;20039;-81
2022/11/12 01:22:47;;;;;;;5.20;3.72;;;;;;;17.00;61.60;103163.47;4769788;30;20062;-80
2022/11/12 01:25:12;;;;;;;5.03;3.80;;;;;;;16.99;61.76;103163.44;4794204;30;20027;-81
2022/11/12 01:27:38;;;;;;;4.38;3.35;;;;;;;17.00;61.24;103167.81;4791462;30;20024;-80
2022/11/12 01:30:05;;;;;;;4.43;3.30;;;;;;;16.99;61.38;103169.53;4778219;30;20059;-81
2022/11/12 01:32:35;;;;;;;4.90;3.30;;;;;;;16.99;61.29;103168.66;4790694;30;20050;-81
2022/11/12 01:35:02;;;;;;;5.20;3.58;;;;;;;16.98;61.55;103159.94;4785927;30;20059;-81
2022/11/12 01:40:50;;;;;;;4.60;3.38;;;;;;;16.99;61.33;103163.44;4783910;30;20057;-81
2022/11/12 01:43:18;;;;;;;5.32;3.88;;;;;;;16.99;61.70;103163.44;4786850;30;20024;-81
2022/11/12 01:45:50;;;;;;;5.30;3.60;;;;;;;16.99;61.25;103177.34;4787181;30;20053;-80
2022/11/12 01:48:55;;;;;;;3.90;3.10;;;;;;;16.99;61.16;103179.06;4804409;30;20055;-81
2022/11/12 01:51:26;;;;;;;4.90;3.28;;;;;;;16.98;61.33;103183.34;4755100;30;20118;-81
2022/11/12 01:53:57;;;;;;;4.15;3.55;;;;;;;16.99;61.00;103176.47;4798184;30;20031;-81
2022/11/12 01:56:28;;;;;;;5.20;3.92;;;;;;;16.99;61.28;103179.06;4803899;29;20027;-81
2022/11/12 01:59:21;;;;;;;4.82;3.25;;;;;;;16.99;61.45;103179.06;4802547;30;20066;-81
2022/11/12 02:02:08;;;;;;;4.78;3.67;;;;;;;16.99;61.17;103173.84;4755799;30;20052;-81
2022/11/12 02:04:39;;;;;;;5.25;3.60;;;;;;;16.98;61.28;103178.16;4744151;30;20040;-81
2022/11/12 02:07:24;;;;;;;7.38;3.63;;;;;;;16.98;61.23;103172.06;4778196;30;20038;-81
2022/11/12 02:10:01;;;;;;;5.07;3.50;;;;;;;16.98;61.31;103170.34;4772558;30;20188;-81
2022/11/12 02:15:12;;;;;;;4.22;3.40;;;;;;;16.97;61.03;103165.13;4764456;30;20114;-81
2022/11/12 02:17:39;;;;;;;4.90;3.60;;;;;;;16.98;61.31;103169.47;4748444;30;20036;-81
2022/11/12 02:20:08;;;;;;;5.28;3.30;;;;;;;16.96;61.34;103159.03;4748954;30;20040;-81
2022/11/12 02:22:34;;;;;;;4.60;3.63;;;;;;;16.97;61.09;103160.78;4771464;30;20031;-81
2022/11/12 02:25:02;;;;;;;4.88;3.47;;;;;;;16.97;61.15;103159.91;4782431;30;20039;-80
2022/11/12 02:27:27;;;;;;;5.25;3.92;;;;;;;16.98;60.91;103156.47;4750159;30;20070;-81
2022/11/12 02:29:53;;;;;;;4.65;3.60;;;;;;;16.98;61.10;103148.66;4763924;30;20039;-81
2022/11/12 02:32:32;;;;;;;3.45;3.15;;;;;;;16.98;60.89;103151.25;4744009;30;20052;-81
2022/11/12 02:34:58;;;;;;;4.50;3.90;;;;;;;16.97;61.19;103147.78;4744811;30;20055;-81
2022/11/12 02:37:23;;;;;;;4.85;3.53;;;;;;;16.97;61.13;103163.41;4730097;30;20035;-81
2022/11/12 02:39:49;;;;;;;5.95;3.95;;;;;;;16.97;61.44;103159.91;4761824;30;20065;-80
2022/11/12 02:42:14;;;;;;;4.57;3.67;;;;;;;16.97;61.40;103160.78;4744616;30;20092;-80
2022/11/12 02:48:13;;;;;;;3.90;3.47;;;;;;;16.99;61.13;103153.03;4771657;30;20570;-82
2022/11/12 02:54:03;;;;;;;5.30;4.18;;;;;;;16.96;61.34;103148.63;4755294;30;20112;-81
2022/11/12 02:56:30;;;;;;;5.32;3.70;;;;;;;16.96;61.24;103146.03;4759283;30;20064;-81
2022/11/12 02:59:01;;;;;;;5.00;4.10;;;;;;;16.96;61.17;103148.63;4760761;30;20032;-80
2022/11/12 03:01:27;;;;;;;4.50;3.90;;;;;;;16.97;61.15;103147.78;4751464;30;20485;-81
2022/11/12 03:03:54;;;;;;;6.30;3.78;;;;;;;16.96;61.27;103142.53;4753719;30;20066;-80
2022/11/12 03:06:20;;;;;;;4.60;3.60;;;;;;;16.96;61.33;103150.34;4743518;30;20092;-80
2022/11/12 03:08:52;;;;;;;4.65;3.92;;;;;;;16.95;61.27;103146.84;4752506;30;20094;-81
2022/11/12 03:11:17;;;;;;;5.13;3.78;;;;;;;16.97;61.19;103152.13;4766520;30;20067;-81
2022/11/12 03:13:44;;;;;;;4.63;4.07;;;;;;;16.96;61.35;103138.25;4732838;30;20044;-80
2022/11/12 03:16:10;;;;;;;4.38;3.50;;;;;;;16.96;61.15;103132.13;4728529;30;20100;-80
2022/11/12 03:18:36;;;;;;;4.43;3.45;;;;;;;16.95;61.49;103133.84;4744802;30;20035;-81
2022/11/12 03:21:03;;;;;;;4.28;3.35;;;;;;;16.96;61.32;103135.63;4756472;30;20024;-81
2022/11/12 03:23:28;;;;;;;5.40;3.60;;;;;;;16.94;61.36;103128.59;4761341;30;20036;-81
2022/11/12 03:25:55;;;;;;;4.32;3.80;;;;;;;16.95;61.36;103136.47;4728509;30;20580;-80
2022/11/12 03:28:21;;;;;;;4.78;3.90;;;;;;;16.93;61.13;103132.94;4755469;30;20063;-81
2022/11/12 03:30:47;;;;;;;4.55;3.80;;;;;;;16.96;61.20;103137.31;4767806;30;20035;-81
2022/11/12 03:33:14;;;;;;;4.30;3.40;;;;;;;16.93;61.14;103138.13;4733929;30;20047;-81
2022/11/12 03:35:59;;;;;;;4.93;3.97;;;;;;;16.96;61.34;103142.53;4767141;30;20491;-81
2022/11/12 03:38:26;;;;;;;5.05;4.18;;;;;;;16.93;61.40;103142.44;4733218;30;20072;-81
2022/11/12 03:41:00;;;;;;;4.82;3.95;;;;;;;16.94;61.22;103145.09;4747656;30;20061;-82
2022/11/12 03:43:33;;;;;;;5.00;4.10;;;;;;;16.94;61.18;103155.50;4747743;30;20043;-81
2022/11/12 03:46:01;;;;;;;5.90;4.00;;;;;;;16.95;61.28;103156.38;4759576;30;20044;-81
2022/11/12 03:48:28;;;;;;;4.40;3.72;;;;;;;16.95;61.25;103159.00;4767024;30;20091;-80
2022/11/12 03:50:58;;;;;;;5.57;4.43;;;;;;;16.95;61.14;103162.47;4747650;30;20040;-81
2022/11/12 03:53:23;;;;;;;4.45;3.92;;;;;;;16.93;61.35;103158.94;4757117;30;20393;-80
2022/11/12 03:55:51;;;;;;;6.63;4.10;;;;;;;16.93;61.23;103156.34;4730679;30;20040;-81
2022/11/12 03:58:17;;;;;;;4.63;3.90;;;;;;;16.93;60.98;103156.34;4730149;30;20028;-81
2022/11/12 04:00:49;;;;;;;4.18;3.65;;;;;;;16.94;61.01;103159.81;4787400;30;20082;-81
2022/11/12 04:03:17;;;;;;;4.35;3.95;;;;;;;16.93;61.20;103158.94;4756913;30;20124;-81
2022/11/12 04:09:14;;;;;;;4.60;4.03;;;;;;;16.94;61.14;103163.31;4725508;30;20040;-81
2022/11/12 04:11:47;;;;;;;4.75;4.25;;;;;;;16.93;61.21;103160.66;4760749;30;20044;-81
2022/11/12 04:14:13;;;;;;;5.18;4.63;;;;;;;16.94;61.42;103163.31;4751002;30;20105;-81
2022/11/12 04:22:56;;;;;;;5.28;4.18;;;;;;;16.91;61.11;103158.00;4747590;30;20048;-81
2022/11/12 04:28:10;;;;;;;4.65;3.80;;;;;;;16.91;60.99;103154.53;4761023;30;20089;-81
2022/11/12 04:30:45;;;;;;;4.45;4.05;;;;;;;16.90;61.17;103151.06;4768600;30;20044;-81
2022/11/12 04:33:53;;;;;;;3.83;3.40;;;;;;;16.90;61.08;103143.25;4777096;30;20039;-81
2022/11/12 04:39:41;;;;;;;4.72;4.22;;;;;;;16.90;61.10;103144.94;4791120;30;20039;-81
2022/11/12 04:45:40;;;;;;;4.72;4.22;;;;;;;16.91;61.05;103155.41;4792037;30;20043;-82
2022/11/12 04:48:13;;;;;;;4.75;4.28;;;;;;;16.90;61.33;103147.53;4786163;30;20049;-81
2022/11/12 04:50:41;;;;;;;5.45;4.18;;;;;;;16.90;61.00;103145.84;4791483;30;20043;-81
2022/11/12 04:53:09;;;;;;;5.28;4.78;;;;;;;16.89;60.85;103144.06;4782908;30;20398;-81
2022/11/12 04:55:35;;;;;;;4.38;3.88;;;;;;;16.89;61.01;103140.59;4780956;30;20062;-81
2022/11/12 04:58:02;;;;;;;5.90;5.03;;;;;;;16.88;60.83;103142.31;4751039;30;20040;-81
2022/11/12 05:00:28;;;;;;;5.22;4.65;;;;;;;16.87;60.64;103135.34;4764904;30;20089;-81
2022/11/12 05:02:53;;;;;;;4.88;4.38;;;;;;;16.89;60.96;103146.66;4790613;29;20028;-81
2022/11/12 05:05:19;;;;;;;5.00;4.50;;;;;;;16.88;60.93;103142.31;4777476;30;20054;-81
2022/11/12 05:07:44;;;;;;;5.30;4.80;;;;;;;16.88;60.94;103134.50;4793208;30;20067;-81
2022/11/12 05:10:13;;;;;;;5.18;4.68;;;;;;;16.88;60.96;103128.44;4801933;30;20095;-81
2022/11/12 05:12:50;;;;;;;5.65;4.97;;;;;;;16.89;60.90;103125.88;4791406;30;20031;-81
2022/11/12 05:15:42;;;;;;;4.97;4.47;;;;;;;16.87;61.01;103127.53;4786448;30;20620;-81
2022/11/12 05:18:14;;;;;;;5.40;4.90;;;;;;;16.88;60.94;103121.50;4784659;30;20072;-81
2022/11/12 05:20:40;;;;;;;6.10;5.28;;;;;;;16.87;60.96;103119.72;4797348;30;20035;-80
2022/11/12 05:23:06;;;;;;;5.22;4.72;;;;;;;16.88;60.88;103125.84;4750840;30;20066;-81
2022/11/12 05:25:31;;;;;;;5.63;5.10;;;;;;;16.87;60.94;103122.34;4767679;30;20031;-81
2022/11/12 05:27:56;;;;;;;5.97;5.38;;;;;;;16.88;60.93;103118.91;4797431;30;20039;-81
2022/11/12 05:30:28;;;;;;;6.10;5.50;;;;;;;16.86;60.88;103110.19;4780887;30;20071;-81
2022/11/12 05:36:21;;;;;;;5.93;5.32;;;;;;;16.90;61.38;103108.53;4807370;30;20144;-82
2022/11/12 05:42:16;;;;;;;6.32;5.72;;;;;;;16.90;61.18;103099.03;4807574;30;20046;-82
2022/11/12 05:44:52;;;;;;;6.40;5.65;;;;;;;16.93;61.01;103112.13;4769321;30;20082;-81
2022/11/12 05:47:58;;;;;;;5.93;5.40;;;;;;;16.95;60.84;103107.84;4769766;30;20040;-82
2022/11/12 05:50:41;;;;;;;6.20;5.60;;;;;;;16.96;61.07;103116.53;4765181;30;20048;-81
2022/11/12 05:56:35;;;;;;;6.35;5.75;;;;;;;16.99;60.91;103117.50;4752324;30;20092;-82
2022/11/12 05:59:06;;;;;;;6.32;5.72;;;;;;;17.00;60.92;103113.19;4721273;30;20044;-81
2022/11/12 06:01:34;;;;;;;6.03;5.43;;;;;;;17.01;61.15;103109.75;4719682;30;20056;-82
2022/11/12 06:04:21;;;;;;;6.72;6.13;;;;;;;17.02;61.09;103114.97;4731772;30;20132;-81
2022/11/12 06:10:34;;;;;;;6.45;5.85;;;;;;;17.04;61.21;103107.22;4737123;30;20072;-81
2022/11/12 06:13:06;;;;;;;6.72;6.03;;;;;;;17.05;61.14;103099.47;4734154;30;20049;-81
2022/11/12 06:15:32;;;;;;;7.05;5.70;;;;;;;17.06;61.14;103102.94;4748999;30;20040;-81
2022/11/12 06:18:00;;;;;;;6.35;5.75;;;;;;;17.09;61.02;103120.38;4750564;30;20036;-82
2022/11/12 06:20:27;;;;;;;6.35;5.70;;;;;;;17.11;61.11;103123.91;4765439;30;20128;-82
2022/11/12 06:22:53;;;;;;;6.93;6.25;;;;;;;17.12;61.19;103117.88;4737765;30;20062;-81
2022/11/12 06:25:19;;;;;;;6.35;5.75;;;;;;;17.12;61.36;103117.88;4753947;30;20040;-82
2022/11/12 06:27:44;;;;;;;6.88;6.15;;;;;;;17.13;61.15;103114.41;4726419;30;20044;-81
2022/11/12 06:30:10;;;;;;;6.07;5.43;;;;;;;17.14;61.21;103119.66;4753996;30;20967;-81
2022/11/12 06:32:36;;;;;;;6.55;5.85;;;;;;;17.17;61.29;103121.47;4764252;30;20119;-81
2022/11/12 06:35:01;;;;;;;6.15;5.55;;;;;;;17.17;61.27;103124.06;4759860;30;20486;-80
2022/11/12 06:37:26;;;;;;;6.75;5.85;;;;;;;17.18;61.13;103129.34;4783404;29;20039;-80
2022/11/12 06:39:52;;;;;;;6.30;5.70;;;;;;;17.16;61.32;103132.69;4748256;30;20086;-81
2022/11/12 06:42:23;;;;;;;6.82;5.80;;;;;;;17.15;61.31;103141.34;4782877;30;20509;-81
2022/11/12 06:44:55;;;;;;;7.45;6.07;;;;;;;17.15;61.75;103143.97;4771938;30;20036;-85
2022/11/12 06:47:21;;;;;;;8.05;6.10;;;;;;;17.12;61.43;103130.88;4778091;30;20032;-79
2022/11/12 06:49:46;;;;;;;6.93;6.15;;;;;;;17.12;61.76;103130.88;4781062;30;20114;-79
2022/11/12 06:52:11;;;;;;;6.65;6.00;;;;;;;17.12;61.79;103136.09;4763762;30;20514;-81
2022/11/12 06:54:37;;;;;;;7.32;6.35;;;;;;;17.13;61.49;103137.84;4744157;30;20173;-79
2022/11/12 06:57:02;;;;;;;7.07;6.15;;;;;;;17.13;61.85;103143.03;4739552;30;20055;-80
2022/11/12 06:59:28;;;;;;;7.25;6.45;;;;;;;17.11;61.76;103139.50;4728993;30;20038;-80
2022/11/12 07:01:53;;;;;;;8.77;6.70;;;;;;;17.10;62.04;103142.97;4744294;30;20060;-80
2022/11/12 07:04:19;;;;;;;6.97;6.10;;;;;;;17.10;61.95;103149.03;4765993;30;20028;-81
2022/11/12 07:06:45;;;;;;;7.15;6.43;;;;;;;17.09;61.91;103149.84;4758263;30;20070;-81
2022/11/12 07:09:10;;;;;;;7.22;6.07;;;;;;;17.08;61.89;103152.44;4791921;30;20042;-80
2022/11/12 07:11:36;;;;;;;9.10;6.60;;;;;;;17.06;61.74;103166.25;4773755;30;20027;-80
2022/11/12 07:14:05;;;;;;;7.30;6.55;;;;;;;17.07;61.88;103169.75;4762986;30;20032;-80
2022/11/12 07:16:30;;;;;;;8.27;7.00;;;;;;;17.07;62.12;103180.16;4781224;30;20028;-80
2022/11/12 07:18:56;;;;;;;7.28;6.57;;;;;;;17.06;61.95;103178.41;4776256;30;20028;-78
2022/11/12 07:21:21;;;;;;;7.00;6.30;;;;;;;17.05;61.79;103182.72;4774814;30;20431;-79
2022/11/12 07:23:47;;;;;;;7.32;6.55;;;;;;;17.05;61.95;103182.72;4778007;30;20107;-80
2022/11/12 07:26:16;;;;;;;8.95;6.97;;;;;;;17.04;62.00;103175.75;4764218;30;20067;-80
2022/11/12 07:28:44;;;;;;;7.88;6.90;;;;;;;17.04;61.72;103170.53;4767534;30;20051;-80
2022/11/12 07:31:13;;;;;;;7.72;6.50;;;;;;;17.04;61.95;103170.53;4767461;30;20028;-79
2022/11/12 07:33:39;;;;;;;8.05;6.93;;;;;;;17.05;62.21;103179.25;4779607;30;20035;-80
2022/11/12 07:36:14;;;;;;;7.63;6.82;;;;;;;17.04;61.89;103186.16;4793670;30;20052;-80
2022/11/12 07:38:42;;;;;;;8.38;6.45;;;;;;;17.04;61.98;103188.75;4746656;30;20047;-80
2022/11/12 07:41:13;;;;;;;7.45;6.47;;;;;;;17.04;61.91;103180.06;4746517;30;20070;-80
2022/11/12 07:43:42;;;;;;;7.18;6.38;;;;;;;17.02;61.83;103185.22;4756367;30;20044;-80
2022/11/12 07:46:22;;;;;;;9.38;7.00;;;;;;;17.03;61.77;103194.81;4765759;30;20043;-81
2022/11/12 07:48:50;;;;;;;8.60;7.32;;;;;;;17.04;61.92;103182.66;4770670;30;20040;-79
2022/11/12 07:51:29;;;;;;;9.80;7.25;;;;;;;17.03;61.94;103186.13;4763750;30;20077;-81
2022/11/12 07:53:58;;;;;;;8.18;6.63;;;;;;;17.04;61.70;103188.75;4747022;30;20060;-80
2022/11/12 07:56:25;;;;;;;8.02;7.18;;;;;;;17.04;61.79;103190.47;4761473;30;20067;-79
2022/11/12 07:58:51;;;;;;;8.30;7.20;;;;;;;17.03;61.90;103183.53;4759791;30;20036;-79
2022/11/12 08:01:40;;;;;;;7.35;6.55;;;;;;;17.03;61.88;103178.31;4767942;30;20091;-80
2022/11/12 08:04:31;;;;;;;7.75;6.93;;;;;;;17.04;61.97;103182.66;4779929;30;20040;-82
2022/11/12 08:14:09;;;;;;;7.57;6.60;;;;;;;17.05;61.95;103181.84;4736764;30;20113;-85
2022/11/12 08:23:43;;;;;;;11.45;8.02;;;;;;;17.20;61.97;103178.78;4796790;29;20046;-86
2022/11/12 08:40:29;;;;;;;16.73;10.85;;;;;;;17.12;61.32;103180.31;4178691;27;20042;-84
2022/11/12 08:43:10;;;;;;;22.17;12.13;;;;;;;17.16;61.17;103185.66;4832733;29;20046;-80
2022/11/12 08:49:00;;;;;;;26.52;12.25;;;;;;;17.24;61.00;103204.06;4835775;29;20063;-80
2022/11/12 08:51:52;;;;;;;20.35;11.85;;;;;;;17.28;61.24;103192.91;4835654;29;20049;-85
2022/11/12 08:54:17;;;;;;;21.83;11.32;;;;;;;17.28;61.15;103193.78;4834532;29;20030;-80
2022/11/12 08:56:45;;;;;;;23.40;12.02;;;;;;;17.30;61.17;103183.44;4846855;29;20102;-81
2022/11/12 08:59:10;;;;;;;20.13;11.80;;;;;;;17.30;61.33;103178.22;4832290;29;20034;-80
2022/11/12 09:01:44;;;;;;;21.23;11.10;;;;;;;17.34;61.22;103177.47;4813701;29;20028;-81
2022/11/12 09:04:12;;;;;;;18.33;10.98;;;;;;;17.37;60.95;103181.88;4823944;29;20107;-80
2022/11/12 09:06:37;;;;;;;33.38;16.08;;;;;;;17.39;60.79;103180.22;4820471;29;20035;-81
2022/11/12 09:09:03;;;;;;;48.90;16.70;;;;;;;17.37;60.87;103176.69;4818722;29;20091;-80
2022/11/12 09:11:28;;;;;;;47.65;17.30;;;;;;;17.38;60.71;103181.06;4803923;29;20046;-79
2022/11/12 09:13:54;;;;;;;48.42;16.67;;;;;;;17.39;60.57;103173.28;4818773;29;20038;-80
2022/11/12 09:16:20;;;;;;;36.13;15.05;;;;;;;17.40;60.64;103179.41;4821505;29;20058;-79
2022/11/12 09:18:46;;;;;;;37.53;14.88;;;;;;;17.40;60.50;103187.19;4820212;29;20057;-82
2022/11/12 09:21:12;;;;;;;27.98;13.80;;;;;;;17.40;60.32;103189.81;4816788;29;20059;-80
2022/11/12 09:23:45;;;;;;;29.08;13.70;;;;;;;17.44;60.12;103186.41;4795802;29;20390;-79
2022/11/12 09:26:13;;;;;;;27.70;13.73;;;;;;;17.44;60.02;103183.81;4834121;29;20034;-84
2022/11/12 09:28:39;;;;;;;30.63;13.13;;;;;;;17.44;59.97;103186.41;4825503;29;20049;-79
2022/11/12 09:31:06;;;;;;;22.40;12.70;;;;;;;17.42;60.08;103189.00;4801031;29;20035;-79
2022/11/12 09:33:33;;;;;;;26.45;12.18;;;;;;;17.41;60.12;103186.34;4817848;29;20577;-79
2022/11/12 09:36:01;;;;;;;22.25;12.25;;;;;;;17.37;60.27;103187.97;4811671;29;20046;-79
2022/11/12 09:38:27;;;;;;;28.73;12.30;;;;;;;17.33;60.57;103182.63;4831146;29;20038;-80
2022/11/12 09:41:18;;;;;;;22.30;12.52;;;;;;;17.31;60.77;103189.50;4831488;29;20076;-80
2022/11/12 09:43:51;;;;;;;21.98;11.18;;;;;;;17.28;60.80;103179.91;4831292;29;20038;-81
2022/11/12 09:46:30;;;;;;;21.42;11.63;;;;;;;17.28;60.92;103182.50;4830755;29;20034;-80
2022/11/12 09:49:37;;;;;;;24.15;11.00;;;;;;;17.25;61.01;103185.03;4814984;29;20037;-80
2022/11/12 09:52:10;;;;;;;17.50;11.43;;;;;;;17.26;60.76;103181.56;4814233;29;20125;-80
2022/11/12 09:54:42;;;;;;;;;;;;;;;17.25;61.08;103175.50;4843600;29;20094;-81
2022/11/12 09:57:12;;;;;;;21.52;11.50;;;;;;;17.24;61.13;103180.66;4829298;29;19916;-81
2022/11/12 09:59:44;;;;;;;16.30;10.40;;;;;;;17.24;60.96;103180.66;4820813;29;20059;-81
2022/11/12 10:02:36;;;;;;;19.75;10.65;;;;;;;17.24;60.93;103180.66;4777442;30;20063;-81
2022/11/12 10:05:41;;;;;;;17.17;10.38;;;;;;;17.22;60.91;103183.22;4787018;30;20044;-81
2022/11/12 10:08:44;;;;;;;16.80;10.23;;;;;;;17.24;61.21;103180.66;4753063;30;20044;-81
2022/11/12 10:18:50;;;;;;;17.38;9.77;;;;;;;17.24;60.95;103172.84;4730797;30;20098;-81
2022/11/12 10:21:41;;;;;;;15.77;10.43;;;;;;;17.24;60.99;103168.50;4745834;30;20044;-81
2022/11/12 10:24:10;;;;;;;15.10;9.65;;;;;;;17.24;61.05;103178.91;4748140;30;20040;-82
2022/11/12 10:26:44;;;;;;;15.45;9.45;;;;;;;17.24;61.04;103180.66;4746302;30;20041;-81
2022/11/12 10:29:28;;;;;;;15.07;8.98;;;;;;;17.24;61.06;103180.66;4743889;30;20049;-81
2022/11/12 10:32:01;;;;;;;16.30;9.48;;;;;;;17.26;61.19;103181.56;4744132;30;20132;-81
2022/11/12 10:34:34;;;;;;;17.73;9.05;;;;;;;17.26;61.19;103184.19;4760641;30;20048;-80
2022/11/12 10:37:19;;;;;;;13.18;8.30;;;;;;;17.26;61.13;103181.56;4761570;30;20065;-80
2022/11/12 10:39:54;;;;;;;13.10;8.98;;;;;;;17.26;61.04;103187.66;4760749;30;20048;-80
2022/11/12 10:42:21;;;;;;;14.95;9.52;;;;;;;17.26;61.11;103189.38;4760201;30;20080;-81
2022/11/12 10:44:47;;;;;;;13.73;8.93;;;;;;;17.27;61.13;103188.56;4766100;30;20040;-81
2022/11/12 10:47:43;;;;;;;13.88;9.63;;;;;;;17.26;61.04;103185.06;4765319;30;20078;-81
2022/11/12 10:50:09;;;;;;;12.55;9.18;;;;;;;17.28;60.93;103192.91;4761126;30;20139;-81
2022/11/12 10:52:35;;;;;;;13.98;8.50;;;;;;;17.28;60.85;103182.50;4760082;30;20095;-80
2022/11/12 10:55:24;;;;;;;13.90;8.85;;;;;;;17.29;61.09;103192.09;4761468;30;20125;-81
2022/11/12 10:58:09;;;;;;;12.20;8.23;;;;;;;17.29;61.19;103197.31;4740786;30;20067;-81
2022/11/12 11:00:51;;;;;;;14.10;8.57;;;;;;;17.30;60.93;103195.56;4762915;30;20043;-81
2022/11/12 11:03:26;;;;;;;14.27;8.55;;;;;;;17.30;61.00;103198.19;4754863;30;20116;-81
2022/11/12 11:06:19;;;;;;;15.00;8.30;;;;;;;17.30;61.14;103191.25;4766936;30;20111;-81
2022/11/12 11:09:15;;;;;;;15.02;8.27;;;;;;;17.30;60.95;103185.16;4765326;30;20036;-81
2022/11/12 11:11:49;;;;;;;10.88;7.32;;;;;;;17.30;60.99;103178.22;4784795;30;20096;-81
2022/11/12 11:14:20;;;;;;;9.85;7.40;;;;;;;17.31;60.83;103189.50;4784046;30;20103;-80
2022/11/12 11:17:07;;;;;;;11.73;8.02;;;;;;;17.31;61.03;103176.50;4783459;30;20039;-81
2022/11/12 11:19:43;;;;;;;11.32;7.82;;;;;;;17.30;61.15;103173.03;4783923;30;20055;-80
2022/11/12 11:22:39;;;;;;;11.35;7.75;;;;;;;17.31;61.09;103180.00;4768911;30;20031;-80
2022/11/12 11:25:36;;;;;;;11.40;7.38;;;;;;;17.33;60.84;103182.63;4792124;30;20088;-81
2022/11/12 11:28:07;;;;;;;10.88;6.85;;;;;;;17.33;60.71;103180.03;4797903;30;20569;-82
2022/11/12 11:30:37;;;;;;;9.80;7.05;;;;;;;17.32;60.95;103179.16;4798654;30;20058;-82
2022/11/12 11:33:20;;;;;;;10.60;7.57;;;;;;;17.33;60.75;103180.03;4783423;30;20094;-81
2022/11/12 11:35:57;;;;;;;12.25;7.68;;;;;;;17.33;60.85;103167.91;4797876;30;20122;-81
2022/11/12 11:38:50;;;;;;;9.60;6.68;;;;;;;17.32;60.85;103168.75;4797996;30;20035;-80
2022/11/12 11:41:43;;;;;;;8.23;6.38;;;;;;;17.31;60.85;103161.78;4800612;29;20156;-80
2022/11/12 11:44:22;;;;;;;10.07;7.45;;;;;;;17.34;60.85;103169.69;4823031;29;20421;-81
2022/11/12 11:47:23;;;;;;;9.45;6.88;;;;;;;17.35;60.87;103162.75;4833874;29;20030;-81
2022/11/12 11:50:27;;;;;;;9.25;6.65;;;;;;;17.35;60.79;103157.53;4835271;29;20088;-81
2022/11/12 11:53:27;;;;;;;10.88;7.20;;;;;;;17.35;60.86;103152.34;4843401;29;20105;-81
2022/11/12 11:56:03;;;;;;;9.30;6.32;;;;;;;17.35;60.46;103135.00;4842722;29;20062;-81
2022/11/12 11:58:47;;;;;;;10.00;6.28;;;;;;;17.35;60.89;103140.19;4840826;29;20034;-80
2022/11/12 12:01:25;;;;;;;9.05;5.95;;;;;;;17.36;60.70;103139.38;4837484;29;20390;-80
2022/11/12 12:04:35;;;;;;;7.97;5.70;;;;;;;17.35;60.38;103127.19;4835071;29;20049;-81
2022/11/12 12:07:39;;;;;;;7.82;6.03;;;;;;;17.37;60.79;103132.44;4782471;30;20059;-81
2022/11/12 12:10:14;;;;;;;7.38;5.60;;;;;;;17.37;60.89;103127.22;4814515;29;20505;-80
2022/11/12 12:12:57;;;;;;;7.68;6.22;;;;;;;17.37;60.64;103130.72;4817506;29;20038;-80
2022/11/12 12:15:39;;;;;;;8.77;6.00;;;;;;;17.36;60.81;103126.34;4817513;29;20038;-80
2022/11/12 12:18:45;;;;;;;7.25;5.22;;;;;;;17.38;60.85;103123.81;4819139;29;20066;-81
2022/11/12 12:21:18;;;;;;;9.45;5.70;;;;;;;17.37;60.74;103117.69;4819969;29;20103;-82
2022/11/12 12:24:14;;;;;;;6.32;4.80;;;;;;;17.38;60.75;103116.00;4820577;29;20042;-83
2022/11/12 12:26:46;;;;;;;6.30;5.43;;;;;;;17.39;60.62;103109.94;4821474;29;20087;-81
2022/11/12 12:29:21;;;;;;;6.85;5.20;;;;;;;17.39;60.82;103109.94;4821697;29;20098;-81
2022/11/12 12:31:57;;;;;;;8.00;5.28;;;;;;;17.38;60.75;103109.06;4846413;29;20027;-81
2022/11/12 12:34:30;;;;;;;7.38;5.90;;;;;;;17.40;60.46;103109.13;4845572;29;20038;-82
2022/11/12 12:37:04;;;;;;;6.30;4.80;;;;;;;17.39;60.42;103110.81;4831319;29;20030;-81
2022/11/12 12:40:02;;;;;;;6.72;5.55;;;;;;;17.40;60.53;103107.38;4845027;29;20030;-81
2022/11/12 12:43:01;;;;;;;6.63;4.97;;;;;;;17.39;60.51;103100.41;4847360;29;20046;-82
2022/11/12 12:45:44;;;;;;;6.95;4.78;;;;;;;17.40;60.53;103094.38;4844198;29;20042;-82
2022/11/12 12:48:43;;;;;;;7.53;5.03;;;;;;;17.40;60.53;103096.97;4834107;29;20038;-81
2022/11/12 12:51:46;;;;;;;6.13;4.85;;;;;;;17.43;60.59;103077.94;4844240;29;20069;-81
2022/11/12 12:54:51;;;;;;;6.97;4.80;;;;;;;17.42;60.43;103077.09;4843790;29;20037;-81
2022/11/12 12:57:30;;;;;;;;;;;;;;;17.42;60.57;103066.66;4841956;29;20494;-82
2022/11/12 13:00:32;;;;;;;6.10;4.40;;;;;;;17.43;60.26;103076.22;4842050;29;19917;-81
2022/11/12 13:03:06;;;;;;;5.93;4.65;;;;;;;17.44;60.58;103069.28;4841426;29;20031;-81
2022/11/12 13:05:36;;;;;;;6.30;4.55;;;;;;;17.42;60.41;103061.47;4839467;29;20046;-82
2022/11/12 13:08:22;;;;;;;7.35;4.60;;;;;;;17.44;60.48;103062.38;4840689;29;20109;-81
2022/11/12 13:10:51;;;;;;;6.85;4.43;;;;;;;17.43;60.46;103049.31;4836421;29;20042;-81
2022/11/12 13:13:38;;;;;;;5.35;3.85;;;;;;;17.46;60.55;103041.59;4841291;29;20026;-81
2022/11/12 13:16:06;;;;;;;6.18;3.90;;;;;;;17.45;60.39;103039.84;4841200;29;20036;-82
2022/11/12 13:18:41;;;;;;;7.20;4.60;;;;;;;17.46;60.27;103038.97;4826147;29;20058;-81
2022/11/12 13:21:11;;;;;;;4.88;4.00;;;;;;;17.46;60.46;103047.69;4842449;29;20037;-81